Time;durP1;ratioP1;P1;durP2;ratioP2;P2;SDS_P1;SDS_P2;PMS_P1;PMS_P2;Temp;Humidity;BMP_temperature;BMP_pressure;BME280_temperature;BME280_humidity;BME280_pressure;Samples;Min_cycle;Max_cycle;Signal;HPM_P1;HPM_P2
2023/11/13 00:04:13;;;;;;;;;;;;;;;19.74;39.72;95111.81;10471371;28;2601;-51
2023/11/13 00:09:13;;;;;;;;;;;;;;;19.71;39.66;95115.00;10458552;28;2576;-51
2023/11/13 00:14:13;;;;;;;;;;;;;;;19.68;39.87;95126.09;10472364;28;2667;-52
2023/11/13 00:19:14;;;;;;;;;;;;;;;19.68;40.01;95142.63;10473094;28;2604;-54
2023/11/13 00:24:14;;;;;;;;;;;;;;;19.65;40.08;95142.44;10475464;28;2661;-52
2023/11/13 00:29:16;;;;;;;;;;;;;;;19.62;39.64;95137.75;10471917;28;2684;-54
2023/11/13 00:34:16;;;;;;;;;;;;;;;19.60;40.11;95145.13;10472364;28;2616;-53
2023/11/13 00:39:19;;;;;;;;;;;;;;;19.58;39.87;95155.16;10471482;28;2760;-52
2023/11/13 00:44:19;;;;;;;;;;;;;;;19.57;39.75;95161.47;10465504;28;4609;-51
2023/11/13 00:49:19;;;;;;;;;;;;;;;19.54;39.84;95169.91;10475564;28;2727;-51
2023/11/13 00:54:20;;;;;;;;;;;;;;;19.52;39.69;95169.38;10481384;28;2636;-52
2023/11/13 00:59:20;;;;;;;;;;;;;;;19.50;39.67;95172.31;10477033;28;2705;-52
2023/11/13 01:04:21;;;;;;;;;;;;;;;19.47;39.86;95142.09;10476026;28;2686;-52
2023/11/13 01:09:21;;;;;;;;;;;;;;;19.45;39.71;95152.13;10467541;28;2601;-54
2023/11/13 01:14:23;;;;;;;;;;;;;;;19.42;39.68;95136.91;10478638;28;2573;-47
2023/11/13 01:19:23;;;;;;;;;;;;;;;19.39;39.55;95126.94;10465263;28;2822;-48
2023/11/13 01:24:24;;;;;;;;;;;;;;;19.40;39.61;95128.53;10462421;28;2579;-51
2023/11/13 01:29:24;;;;;;;;;;;;;;;19.40;39.49;95136.41;10468259;28;2659;-52
2023/11/13 01:34:24;;;;;;;;;;;;;;;19.36;39.80;95142.50;10464258;28;2661;-55
2023/11/13 01:39:24;;;;;;;;;;;;;;;19.35;39.84;95162.75;10455046;28;2802;-51
2023/11/13 01:44:25;;;;;;;;;;;;;;;19.34;39.63;95145.44;10475854;28;2623;-51
2023/11/13 01:49:25;;;;;;;;;;;;;;;19.33;39.55;95140.44;10484133;28;2663;-50
2023/11/13 01:54:25;;;;;;;;;;;;;;;19.31;39.46;95132.00;10483168;28;2653;-52
2023/11/13 01:59:26;;;;;;;;;;;;;;;19.30;39.65;95127.84;10464784;28;2630;-53
2023/11/13 02:04:26;;;;;;;;;;;;;;;19.28;39.42;95114.97;10475424;28;2590;-54
2023/11/13 02:09:26;;;;;;;;;;;;;;;19.27;39.59;95120.50;10476684;28;2659;-53
2023/11/13 02:14:26;;;;;;;;;;;;;;;19.25;39.55;95118.16;10476512;28;2613;-51
2023/11/13 02:19:27;;;;;;;;;;;;;;;19.24;39.60;95137.63;10461639;28;2664;-52
2023/11/13 02:24:27;;;;;;;;;;;;;;;19.23;39.51;95130.00;10476490;28;2667;-53
2023/11/13 02:29:28;;;;;;;;;;;;;;;19.20;39.72;95126.09;10478724;28;2719;-52
2023/11/13 02:34:28;;;;;;;;;;;;;;;19.19;39.54;95116.66;10450399;28;2812;-53
2023/11/13 02:39:28;;;;;;;;;;;;;;;19.19;39.42;95108.75;10476085;28;2599;-52
2023/11/13 02:44:28;;;;;;;;;;;;;;;19.17;39.76;95110.09;10477919;28;2577;-53
2023/11/13 02:49:29;;;;;;;;;;;;;;;19.14;39.48;95106.22;10483588;28;2681;-53
2023/11/13 02:54:30;;;;;;;;;;;;;;;19.13;39.66;95091.50;10486413;28;2560;-52
2023/11/13 02:59:30;;;;;;;;;;;;;;;19.13;39.41;95088.88;10479114;28;2749;-55
2023/11/13 03:04:30;;;;;;;;;;;;;;;19.10;39.35;95078.91;10482117;28;2601;-52
2023/11/13 03:09:30;;;;;;;;;;;;;;;19.07;39.52;95068.19;10482137;28;2731;-50
2023/11/13 03:14:31;;;;;;;;;;;;;;;19.09;39.48;95066.06;10455812;28;2708;-53
2023/11/13 03:19:31;;;;;;;;;;;;;;;19.06;39.60;95071.88;10479013;28;2567;-49
2023/11/13 03:24:32;;;;;;;;;;;;;;;19.08;39.31;95077.63;10476584;28;2665;-52
2023/11/13 03:29:32;;;;;;;;;;;;;;;19.05;39.42;95070.31;10483454;28;2611;-51
2023/11/13 03:34:32;;;;;;;;;;;;;;;19.06;39.31;95066.63;10473561;28;2653;-53
2023/11/13 03:39:33;;;;;;;;;;;;;;;19.03;39.51;95057.47;10487041;28;2623;-52
2023/11/13 03:44:33;;;;;;;;;;;;;;;19.01;39.30;95061.41;10475680;28;4506;-52
2023/11/13 03:49:33;;;;;;;;;;;;;;;18.99;39.63;95056.47;10466765;28;2569;-51
2023/11/13 03:54:33;;;;;;;;;;;;;;;18.99;39.34;95066.97;10471486;28;2657;-50
2023/11/13 03:59:34;;;;;;;;;;;;;;;18.97;39.46;95063.84;10478622;28;2610;-52
2023/11/13 04:04:34;;;;;;;;;;;;;;;18.97;39.56;95055.16;10439714;28;2692;-52
2023/11/13 04:09:35;;;;;;;;;;;;;;;18.95;39.50;95050.19;10476464;28;2710;-52
2023/11/13 04:14:35;;;;;;;;;;;;;;;18.95;39.37;95044.94;10469290;28;2613;-51
2023/11/13 04:19:35;;;;;;;;;;;;;;;18.93;39.63;95043.66;10453614;28;2652;-51
2023/11/13 04:24:35;;;;;;;;;;;;;;;18.92;39.79;95035.00;10476480;28;2628;-52
2023/11/13 04:29:36;;;;;;;;;;;;;;;18.92;39.61;95050.75;10474064;28;2573;-53
2023/11/13 04:34:36;;;;;;;;;;;;;;;18.90;39.51;95042.38;10469013;28;2580;-53
2023/11/13 04:39:37;;;;;;;;;;;;;;;18.90;39.52;95046.84;10475775;28;2613;-52
2023/11/13 04:44:37;;;;;;;;;;;;;;;18.86;39.65;95046.59;10469999;28;4470;-52
2023/11/13 04:49:37;;;;;;;;;;;;;;;18.87;39.43;95053.44;10477371;28;2567;-52
2023/11/13 04:54:37;;;;;;;;;;;;;;;18.87;39.60;95058.69;10474189;28;2583;-52
2023/11/13 04:59:38;;;;;;;;;;;;;;;18.84;39.63;95059.22;10473398;28;2676;-52
2023/11/13 05:04:39;;;;;;;;;;;;;;;18.85;39.73;95049.53;10451341;28;2762;-54
2023/11/13 05:09:42;;;;;;;;;;;;;;;18.89;39.88;95064.44;10474651;28;2668;-54
2023/11/13 05:14:42;;;;;;;;;;;;;;;18.94;40.36;95061.00;10470701;28;2669;-53
2023/11/13 05:19:42;;;;;;;;;;;;;;;19.00;40.06;95047.50;10479043;28;2664;-53
2023/11/13 05:24:43;;;;;;;;;;;;;;;19.08;40.23;95048.75;10481910;28;2537;-50
2023/11/13 05:29:43;;;;;;;;;;;;;;;19.19;40.18;95047.53;10484843;28;2585;-54
2023/11/13 05:34:43;;;;;;;;;;;;;;;19.26;40.32;95055.88;10479601;28;2586;-49
2023/11/13 05:39:44;;;;;;;;;;;;;;;19.34;39.81;95061.31;10462682;28;2621;-52
2023/11/13 05:44:44;;;;;;;;;;;;;;;19.41;39.85;95064.38;10472675;28;4637;-50
2023/11/13 05:49:44;;;;;;;;;;;;;;;19.49;40.10;95070.88;10464768;28;2723;-52
2023/11/13 05:54:44;;;;;;;;;;;;;;;19.54;39.82;95072.66;10480160;28;2667;-53
2023/11/13 05:59:45;;;;;;;;;;;;;;;19.59;39.78;95076.00;10479999;28;2829;-54
2023/11/13 06:04:45;;;;;;;;;;;;;;;19.64;39.62;95083.03;10472806;28;2667;-51
2023/11/13 06:09:45;;;;;;;;;;;;;;;19.67;39.68;95083.25;10471514;28;2533;-53
2023/11/13 06:14:45;;;;;;;;;;;;;;;19.72;39.55;95085.78;10477115;28;2671;-54
2023/11/13 06:19:46;;;;;;;;;;;;;;;19.73;39.64;95082.09;10466558;28;2618;-53
2023/11/13 06:24:46;;;;;;;;;;;;;;;19.76;39.70;95091.28;10475273;28;2836;-51
2023/11/13 06:29:46;;;;;;;;;;;;;;;19.79;39.32;95101.22;10473746;28;2592;-50
2023/11/13 06:34:47;;;;;;;;;;;;;;;19.83;39.87;95108.28;10490406;28;2617;-54
2023/11/13 06:39:47;;;;;;;;;;;;;;;19.90;40.01;95113.19;10480518;28;2684;-52
2023/11/13 06:44:48;;;;;;;;;;;;;;;20.02;39.77;95110.91;10472611;28;4621;-54
2023/11/13 06:49:48;;;;;;;;;;;;;;;20.13;39.36;95113.09;10482563;28;2629;-53
2023/11/13 06:54:48;;;;;;;;;;;;;;;20.15;39.58;95113.59;10464518;28;2772;-48
2023/11/13 06:59:48;;;;;;;;;;;;;;;20.17;39.28;95092.28;10472084;28;2656;-50
2023/11/13 07:04:49;;;;;;;;;;;;;;;20.19;39.60;95121.72;10474472;28;2607;-50
2023/11/13 07:09:49;;;;;;;;;;;;;;;20.22;39.45;95140.38;10478088;28;2657;-51
2023/11/13 07:14:51;;;;;;;;;;;;;;;20.19;39.40;95133.06;10479542;28;2805;-52
2023/11/13 07:19:51;;;;;;;;;;;;;;;20.24;39.36;95138.22;10466354;28;2563;-52
2023/11/13 07:24:53;;;;;;;;;;;;;;;20.27;39.76;95140.31;10472418;28;2560;-50
2023/11/13 07:29:53;;;;;;;;;;;;;;;20.28;39.83;95168.19;10467723;28;2612;-53
2023/11/13 07:34:53;;;;;;;;;;;;;;;20.31;39.52;95182.63;10470567;28;2585;-55
2023/11/13 07:39:54;;;;;;;;;;;;;;;20.31;39.91;95185.25;10472830;28;2615;-49
2023/11/13 07:44:55;;;;;;;;;;;;;;;20.30;40.17;95183.66;10468948;28;4652;-53
2023/11/13 07:49:58;;;;;;;;;;;;;;;20.30;39.86;95177.66;10451503;28;2577;-54
2023/11/13 07:55:00;;;;;;;;;;;;;;;20.28;39.77;95180.53;10477181;28;2597;-51
2023/11/13 08:00:03;;;;;;;;;;;;;;;20.26;39.43;95174.78;10468599;28;2666;-54
2023/11/13 08:05:04;;;;;;;;;;;;;;;20.26;39.42;95186.09;10472094;28;2620;-53
2023/11/13 08:10:08;;;;;;;;;;;;;;;20.26;39.63;95201.09;10453100;28;2707;-52
2023/11/13 08:15:09;;;;;;;;;;;;;;;20.25;40.00;95186.41;10468386;28;2655;-54
2023/11/13 08:20:13;;;;;;;;;;;;;;;20.23;40.21;95191.16;10467664;28;2620;-53
2023/11/13 08:25:15;;;;;;;;;;;;;;;20.20;39.96;95192.50;10449836;28;2659;-52
2023/11/13 08:30:15;;;;;;;;;;;;;;;20.18;40.17;95199.06;10469537;28;2599;-51
2023/11/13 08:35:15;;;;;;;;;;;;;;;20.14;40.13;95201.50;10469589;28;2645;-52
2023/11/13 08:40:18;;;;;;;;;;;;;;;20.13;39.85;95201.78;10450426;28;2680;-53
2023/11/13 08:45:19;;;;;;;;;;;;;;;20.09;39.45;95212.09;10472050;28;4871;-51
2023/11/13 08:50:21;;;;;;;;;;;;;;;20.06;39.75;95209.25;10467109;28;2898;-55
2023/11/13 08:55:22;;;;;;;;;;;;;;;20.04;39.77;95224.53;10470824;28;2698;-51
2023/11/13 09:00:24;;;;;;;;;;;;;;;19.99;39.86;95227.25;10477780;28;2602;-51
2023/11/13 09:05:25;;;;;;;;;;;;;;;20.00;39.68;95213.78;10466127;28;2539;-52
2023/11/13 09:10:29;;;;;;;;;;;;;;;19.94;40.16;95220.19;10465714;28;2595;-51
2023/11/13 09:15:30;;;;;;;;;;;;;;;19.93;39.81;95212.56;10469958;28;2585;-48
2023/11/13 09:20:33;;;;;;;;;;;;;;;19.92;39.88;95216.25;10449178;28;2630;-52
2023/11/13 09:25:33;;;;;;;;;;;;;;;19.92;39.73;95217.06;10465967;28;2544;-50
2023/11/13 09:30:34;;;;;;;;;;;;;;;19.87;40.05;95211.06;10461518;28;2686;-54
2023/11/13 09:35:36;;;;;;;;;;;;;;;19.84;39.95;95214.25;10468329;28;2620;-51
2023/11/13 09:40:36;;;;;;;;;;;;;;;19.83;39.69;95207.41;10467665;28;2682;-54
2023/11/13 09:45:37;;;;;;;;;;;;;;;19.78;39.68;95216.19;10464408;28;4749;-53
2023/11/13 09:50:38;;;;;;;;;;;;;;;19.78;39.72;95223.28;10482248;28;2749;-50
2023/11/13 09:55:41;;;;;;;;;;;;;;;19.74;39.81;95214.38;10457962;28;2640;-49
2023/11/13 10:00:41;;;;;;;;;;;;;;;19.71;39.98;95209.66;10468759;28;2571;-52
2023/11/13 10:05:42;;;;;;;;;;;;;;;19.69;39.86;95196.03;10471130;28;2569;-54
2023/11/13 10:10:42;;;;;;;;;;;;;;;19.69;39.55;95188.13;10482499;28;2608;-51
2023/11/13 10:15:44;;;;;;;;;;;;;;;19.65;39.90;95173.97;10474664;28;2586;-50
2023/11/13 10:20:49;;;;;;;;;;;;;;;19.62;39.99;95164.81;10461284;28;2639;-53
2023/11/13 10:25:50;;;;;;;;;;;;;;;19.61;40.08;95159.84;10460612;28;2723;-53
2023/11/13 10:30:53;;;;;;;;;;;;;;;19.59;40.10;95154.88;10476053;28;2673;-48
2023/11/13 10:35:54;;;;;;;;;;;;;;;19.58;40.08;95149.91;10477841;28;2676;-53
2023/11/13 10:41:00;;;;;;;;;;;;;;;19.56;39.98;95146.75;10473017;28;4793;-54
2023/11/13 10:46:01;;;;;;;;;;;;;;;19.53;40.06;95142.84;10468531;28;2573;-53
2023/11/13 10:51:04;;;;;;;;;;;;;;;19.52;39.91;95137.84;10470883;28;2691;-52
2023/11/13 10:56:05;;;;;;;;;;;;;;;19.49;40.33;95128.69;10474631;28;2541;-53
2023/11/13 11:01:07;;;;;;;;;;;;;;;19.48;40.05;95117.41;10475477;28;2679;-51
2023/11/13 11:06:11;;;;;;;;;;;;;;;19.47;40.03;95109.81;10457418;28;2596;-53
2023/11/13 11:11:15;;;;;;;;;;;;;;;19.43;40.27;95099.03;10465079;28;2656;-49
2023/11/13 11:16:30;;;;;;;;;;;;;;;19.41;40.18;95095.91;10476377;28;2547;-53
2023/11/13 11:21:50;;;;;;;;;;;;;;;19.39;40.29;95090.16;10457820;28;2689;-53
2023/11/13 11:26:52;;;;;;;;;;;;;;;19.39;40.48;95077.03;10479912;28;2738;-52
2023/11/13 11:31:53;;;;;;;;;;;;;;;19.40;40.10;95073.34;10476006;28;2649;-51
2023/11/13 11:36:53;;;;;;;;;;;;;;;19.43;40.66;95064.88;10476083;28;2614;-50
2023/11/13 11:41:53;;;;;;;;;;;;;;;19.47;41.28;95057.22;10449561;28;4541;-52
2023/11/13 11:46:58;;;;;;;;;;;;;;;19.52;40.80;95051.88;10472343;28;2584;-48
2023/11/13 11:52:05;;;;;;;;;;;;;;;19.54;40.86;95052.38;10470560;28;2711;-47
2023/11/13 11:57:07;;;;;;;;;;;;;;;19.53;40.76;95042.16;10473783;28;2621;-50
2023/11/13 12:02:07;;;;;;;;;;;;;;;19.51;40.70;95049.56;10477042;28;3051;-49
2023/11/13 12:07:14;;;;;;;;;;;;;;;19.47;40.99;95050.09;10466053;28;2787;-50
2023/11/13 12:12:14;;;;;;;;;;;;;;;19.43;40.97;95051.72;10469206;28;2630;-50
2023/11/13 12:17:15;;;;;;;;;;;;;;;19.45;41.59;95039.09;10447531;28;2742;-51
2023/11/13 12:22:15;;;;;;;;;;;;;;;19.45;42.03;95025.19;10449287;28;2602;-48
2023/11/13 12:27:15;;;;;;;;;;;;;;;19.45;41.96;95020.69;10475446;28;2623;-52
2023/11/13 12:32:15;;;;;;;;;;;;;;;19.42;41.50;95007.34;10457197;28;2568;-49
2023/11/13 12:37:16;;;;;;;;;;;;;;;19.37;41.55;95008.19;10471357;28;2645;-50
2023/11/13 12:42:16;;;;;;;;;;;;;;;19.36;41.11;95001.38;10455959;28;2613;-50
2023/11/13 12:47:18;;;;;;;;;;;;;;;19.33;41.18;95001.16;10476385;28;2633;-52
2023/11/13 12:52:19;;;;;;;;;;;;;;;19.30;40.98;94999.84;10450391;28;2609;-48
2023/11/13 12:57:19;;;;;;;;;;;;;;;19.27;41.29;94994.38;10467295;28;2605;-52
2023/11/13 13:02:21;;;;;;;;;;;;;;;19.25;41.10;95007.00;10470132;28;3000;-53
2023/11/13 13:07:21;;;;;;;;;;;;;;;19.23;40.75;95004.66;10466200;28;2541;-51
2023/11/13 13:12:21;;;;;;;;;;;;;;;19.21;41.32;94983.16;10459271;28;2668;-52
2023/11/13 13:17:26;;;;;;;;;;;;;;;19.19;41.37;94971.34;10457171;28;2582;-51
2023/11/13 13:22:26;;;;;;;;;;;;;;;19.13;41.63;94973.28;10465875;28;2889;-52
2023/11/13 13:27:26;;;;;;;;;;;;;;;19.13;41.36;94970.66;10466009;28;2536;-48
2023/11/13 13:32:30;;;;;;;;;;;;;;;19.13;41.10;94952.25;10466686;28;2580;-48
2023/11/13 13:37:31;;;;;;;;;;;;;;;19.11;41.05;94943.88;10450101;28;2604;-51
2023/11/13 13:42:33;;;;;;;;;;;;;;;19.10;41.28;94928.41;10468607;28;4676;-51
2023/11/13 13:47:33;;;;;;;;;;;;;;;19.09;41.12;94914.50;10470526;28;2623;-51
2023/11/13 13:52:35;;;;;;;;;;;;;;;19.05;41.48;94913.50;10469490;28;2641;-53
2023/11/13 13:57:36;;;;;;;;;;;;;;;19.08;41.19;94912.16;10475832;28;2669;-51
2023/11/13 14:02:37;;;;;;;;;;;;;;;19.06;41.22;94919.53;10452908;28;2604;-53
2023/11/13 14:07:38;;;;;;;;;;;;;;;19.04;41.12;94930.31;10476066;28;2612;-52
2023/11/13 14:12:38;;;;;;;;;;;;;;;19.03;41.16;94922.72;10475718;28;2616;-52
2023/11/13 14:17:41;;;;;;;;;;;;;;;19.02;41.03;94927.19;10477541;28;2688;-51
2023/11/13 14:22:42;;;;;;;;;;;;;;;19.00;41.03;94921.44;10471987;28;2831;-49
2023/11/13 14:27:43;;;;;;;;;;;;;;;18.99;41.01;94919.88;10481404;28;2576;-52
2023/11/13 14:32:45;;;;;;;;;;;;;;;18.98;41.02;94912.28;10480589;28;2576;-51
2023/11/13 14:37:45;;;;;;;;;;;;;;;18.98;41.40;94918.31;10473955;28;2556;-52
2023/11/13 14:42:46;;;;;;;;;;;;;;;19.01;41.80;94915.13;10471719;28;4479;-52
2023/11/13 14:47:47;;;;;;;;;;;;;;;19.06;42.38;94896.66;10478354;28;2533;-46
2023/11/13 14:52:48;;;;;;;;;;;;;;;19.15;42.57;94900.22;10474166;28;2634;-47
2023/11/13 14:57:50;;;;;;;;;;;;;;;19.25;42.84;94897.44;10471865;28;2659;-51
2023/11/13 15:02:51;;;;;;;;;;;;;;;19.36;42.74;94898.09;10471996;28;2665;-47
2023/11/13 15:07:51;;;;;;;;;;;;;;;19.43;42.44;94883.53;10470700;28;2603;-48
2023/11/13 15:12:52;;;;;;;;;;;;;;;19.52;42.74;94881.03;10468632;28;2544;-49
2023/11/13 15:17:52;;;;;;;;;;;;;;;19.59;42.51;94876.19;10461167;28;2587;-51
2023/11/13 15:22:54;;;;;;;;;;;;;;;19.65;42.62;94879.50;10448912;28;2545;-50
2023/11/13 15:27:55;;;;;;;;;;;;;;;19.71;42.12;94857.31;10443945;28;2586;-51
2023/11/13 15:33:03;;;;;;;;;;;;;;;19.75;42.49;94851.22;10466906;28;2602;-49
2023/11/13 15:38:03;;;;;;;;;;;;;;;19.80;42.98;94859.03;10465526;28;2533;-49
2023/11/13 15:43:03;;;;;;;;;;;;;;;19.85;42.44;94855.50;10471636;28;4644;-52
2023/11/13 15:48:04;;;;;;;;;;;;;;;19.88;42.32;94853.09;10464548;28;2568;-50
2023/11/13 15:53:04;;;;;;;;;;;;;;;19.92;43.05;94848.03;10469376;28;2537;-49
2023/11/13 15:58:06;;;;;;;;;;;;;;;19.95;42.45;94835.06;10465220;28;2624;-52
2023/11/13 16:03:06;;;;;;;;;;;;;;;19.99;42.46;94848.44;10463466;28;2537;-51
2023/11/13 16:08:07;;;;;;;;;;;;;;;20.00;42.67;94828.94;10452819;28;2633;-48
2023/11/13 16:13:07;;;;;;;;;;;;;;;20.06;42.46;94846.19;10472057;28;2585;-50
2023/11/13 16:18:07;;;;;;;;;;;;;;;20.09;42.11;94838.47;10472358;28;2529;-50
2023/11/13 16:23:08;;;;;;;;;;;;;;;20.15;41.96;94837.31;10453971;28;2622;-49
2023/11/13 16:28:08;;;;;;;;;;;;;;;20.19;41.59;94843.59;10466158;28;2625;-51
2023/11/13 16:33:08;;;;;;;;;;;;;;;20.31;41.51;94840.47;10468813;28;2653;-47
2023/11/13 16:38:09;;;;;;;;;;;;;;;20.33;40.83;94848.84;10457343;28;2631;-46
2023/11/13 16:43:10;;;;;;;;;;;;;;;20.42;40.64;94847.09;10457960;28;4774;-51
2023/11/13 16:48:10;;;;;;;;;;;;;;;20.49;40.91;94841.41;10466031;28;2626;-49
2023/11/13 16:53:13;;;;;;;;;;;;;;;20.53;40.38;94843.19;10474648;28;2743;-52
2023/11/13 16:58:13;;;;;;;;;;;;;;;20.59;40.83;94847.25;10458345;28;2925;-50
2023/11/13 17:03:13;;;;;;;;;;;;;;;20.61;40.39;94855.66;10465676;28;2599;-49
2023/11/13 17:08:14;;;;;;;;;;;;;;;20.66;40.65;94857.41;10478561;28;2588;-52
2023/11/13 17:13:14;;;;;;;;;;;;;;;20.68;40.30;94860.53;10476710;28;2677;-48
2023/11/13 17:18:18;;;;;;;;;;;;;;;20.73;40.14;94860.44;10468447;28;2603;-49
2023/11/13 17:23:18;;;;;;;;;;;;;;;20.76;41.16;94873.78;10462930;28;2631;-52
2023/11/13 17:28:19;;;;;;;;;;;;;;;20.79;40.59;94865.28;10453196;28;2637;-50
2023/11/13 17:33:22;;;;;;;;;;;;;;;20.80;40.75;94872.09;10478863;28;2623;-51
2023/11/13 17:38:23;;;;;;;;;;;;;;;20.88;40.53;94866.13;10480118;28;2715;-50
2023/11/13 17:43:23;;;;;;;;;;;;;;;20.91;40.67;94878.72;10475026;28;4658;-49
2023/11/13 17:48:24;;;;;;;;;;;;;;;20.90;40.33;94890.31;10484292;28;1991;-51
2023/11/13 17:53:25;;;;;;;;;;;;;;;20.97;39.45;94896.00;10486496;28;1972;-48
2023/11/13 17:58:25;;;;;;;;;;;;;;;20.95;40.13;94877.06;10481768;28;1428;-51
2023/11/13 18:03:25;;;;;;;;;;;;;;;20.99;39.59;94864.84;10480919;28;2390;-53
2023/11/13 18:08:27;;;;;;;;;;;;;;;21.00;39.45;94865.63;10490935;28;1294;-49
2023/11/13 18:13:31;;;;;;;;;;;;;;;21.08;40.53;94864.19;10487955;28;1967;-50
2023/11/13 18:18:32;;;;;;;;;;;;;;;21.05;39.39;94855.78;10482418;28;1433;-50
2023/11/13 18:23:32;;;;;;;;;;;;;;;21.07;39.94;94847.59;10476577;28;1471;-52
2023/11/13 18:28:32;;;;;;;;;;;;;;;21.06;39.77;94838.88;10487954;28;1571;-52
2023/11/13 18:33:39;;;;;;;;;;;;;;;21.15;39.34;94807.34;10478289;28;1913;-52
2023/11/13 18:38:39;;;;;;;;;;;;;;;21.15;39.54;94794.16;10490200;28;2017;-51
2023/11/13 18:43:39;;;;;;;;;;;;;;;21.12;39.54;94800.03;10472131;28;4775;-51
2023/11/13 18:48:40;;;;;;;;;;;;;;;21.13;39.50;94800.81;10510297;28;1489;-52
2023/11/13 18:53:42;;;;;;;;;;;;;;;21.26;39.36;94819.22;10489937;28;1963;-51
2023/11/13 18:58:43;;;;;;;;;;;;;;;21.41;39.30;94815.44;10493620;28;1431;-52
2023/11/13 19:03:43;;;;;;;;;;;;;;;21.53;38.40;94797.19;10483723;28;1654;-51
2023/11/13 19:08:44;;;;;;;;;;;;;;;21.59;38.55;94807.31;10477814;28;1805;-50
2023/11/13 19:13:45;;;;;;;;;;;;;;;21.71;38.07;94812.03;10494022;28;1953;-51
2023/11/13 19:18:46;;;;;;;;;;;;;;;21.78;38.46;94826.34;10489602;28;2391;-51
2023/11/13 19:23:49;;;;;;;;;;;;;;;21.88;38.11;94835.91;10466607;28;1521;-53
2023/11/13 19:28:49;;;;;;;;;;;;;;;21.92;38.01;94834.22;10482970;28;1532;-50
2023/11/13 19:33:53;;;;;;;;;;;;;;;21.97;38.03;94817.47;10464248;28;1976;-52
2023/11/13 19:38:54;;;;;;;;;;;;;;;22.00;37.84;94817.63;10489175;28;1491;-53
2023/11/13 19:43:55;;;;;;;;;;;;;;;22.02;37.70;94801.50;10481400;28;1484;-53
2023/11/13 19:48:55;;;;;;;;;;;;;;;22.05;37.95;94801.66;10487952;28;1563;-49
2023/11/13 19:53:55;;;;;;;;;;;;;;;22.09;37.67;94805.22;10480924;28;1910;-51
2023/11/13 19:58:56;;;;;;;;;;;;;;;22.09;37.69;94804.47;10485113;28;1813;-51
2023/11/13 20:03:56;;;;;;;;;;;;;;;22.11;37.47;94795.19;10480942;28;1706;-50
2023/11/13 20:09:04;;;;;;;;;;;;;;;22.16;37.61;94800.31;10499333;28;1508;-54
2023/11/13 20:14:04;;;;;;;;;;;;;;;22.14;37.64;94813.03;10482083;28;1901;-54
2023/11/13 20:19:06;;;;;;;;;;;;;;;22.06;37.90;94799.78;10485487;28;2566;-50
2023/11/13 20:24:07;;;;;;;;;;;;;;;22.00;37.75;94793.88;10484787;28;1712;-52
2023/11/13 20:29:07;;;;;;;;;;;;;;;21.88;37.79;94807.63;10472116;28;1499;-50
2023/11/13 20:34:08;;;;;;;;;;;;;;;21.76;38.00;94801.38;10483855;28;1977;-52
2023/11/13 20:39:09;;;;;;;;;;;;;;;21.67;37.48;94793.41;10484637;28;2536;-52
2023/11/13 20:44:12;;;;;;;;;;;;;;;21.56;37.51;94797.38;10459174;28;4657;-52
2023/11/13 20:49:12;;;;;;;;;;;;;;;21.45;38.71;94806.59;10480858;28;2826;-53
2023/11/13 20:54:12;;;;;;;;;;;;;;;21.36;39.13;94805.00;10471093;28;2600;-55
2023/11/13 20:59:15;;;;;;;;;;;;;;;21.28;39.22;94817.06;10469212;28;2568;-51
2023/11/13 21:04:17;;;;;;;;;;;;;;;21.22;39.64;94817.47;10471479;28;2631;-53
2023/11/13 21:09:17;;;;;;;;;;;;;;;21.18;40.07;94808.59;10472372;28;2540;-51
2023/11/13 21:14:20;;;;;;;;;;;;;;;21.14;40.37;94791.84;10489937;28;2596;-52
2023/11/13 21:19:20;;;;;;;;;;;;;;;21.11;40.66;94808.22;10472126;28;1470;-52
2023/11/13 21:24:22;;;;;;;;;;;;;;;21.01;40.75;94781.03;10475293;28;1460;-51
2023/11/13 21:29:23;;;;;;;;;;;;;;;20.93;41.01;94779.09;10459353;28;1517;-54
2023/11/13 21:34:24;;;;;;;;;;;;;;;20.90;40.54;94765.72;10471300;28;1883;-51
2023/11/13 21:39:25;;;;;;;;;;;;;;;20.84;41.31;94770.34;10478881;28;1416;-53
2023/11/13 21:44:26;;;;;;;;;;;;;;;20.79;41.32;94767.81;10475986;28;4654;-53
2023/11/13 21:49:26;;;;;;;;;;;;;;;20.75;40.90;94779.28;10456429;28;1508;-51
2023/11/13 21:54:26;;;;;;;;;;;;;;;20.74;40.77;94759.25;10457674;28;1910;-50
2023/11/13 21:59:26;;;;;;;;;;;;;;;20.68;40.97;94766.50;10480902;28;1596;-49
2023/11/13 22:04:27;;;;;;;;;;;;;;;20.63;41.12;94757.94;10485979;28;1670;-51
2023/11/13 22:09:30;;;;;;;;;;;;;;;20.60;40.79;94740.88;10469417;28;2303;-48
2023/11/13 22:14:30;;;;;;;;;;;;;;;20.61;41.38;94739.03;10473288;28;1682;-49
2023/11/13 22:19:31;;;;;;;;;;;;;;;20.61;41.82;94752.97;10462582;28;2598;-53
2023/11/13 22:24:31;;;;;;;;;;;;;;;20.59;42.30;94754.31;10481115;28;2600;-53
2023/11/13 22:29:34;;;;;;;;;;;;;;;20.59;42.86;94780.66;10479574;28;2592;-53
2023/11/13 22:34:37;;;;;;;;;;;;;;;20.60;42.54;94776.97;10491833;28;2684;-51
2023/11/13 22:39:37;;;;;;;;;;;;;;;20.59;42.44;94794.59;10457243;28;2650;-52
2023/11/13 22:44:37;;;;;;;;;;;;;;;20.59;42.07;94804.34;10475337;28;4609;-51
2023/11/13 22:49:38;;;;;;;;;;;;;;;20.52;42.58;94793.47;10455889;28;2603;-52
2023/11/13 22:54:40;;;;;;;;;;;;;;;20.51;42.20;94797.94;10469729;28;2609;-52
2023/11/13 22:59:41;;;;;;;;;;;;;;;20.46;42.21;94784.91;10474457;28;2576;-52
2023/11/13 23:04:41;;;;;;;;;;;;;;;20.43;42.20;94792.59;10455641;28;2568;-49
2023/11/13 23:09:42;;;;;;;;;;;;;;;20.40;42.15;94780.03;10474665;28;2638;-51
2023/11/13 23:14:44;;;;;;;;;;;;;;;20.39;41.82;94771.34;10475364;28;2577;-51
2023/11/13 23:19:44;;;;;;;;;;;;;;;20.34;42.66;94781.97;10477283;28;2650;-53
2023/11/13 23:24:45;;;;;;;;;;;;;;;20.33;42.52;94790.16;10474343;28;2592;-52
2023/11/13 23:29:46;;;;;;;;;;;;;;;20.29;42.50;94800.50;10481105;28;2541;-50
2023/11/13 23:34:48;;;;;;;;;;;;;;;20.25;42.78;94791.66;10481637;28;2545;-47
2023/11/13 23:39:55;;;;;;;;;;;;;;;20.24;42.69;94790.06;10476869;28;2649;-53
2023/11/13 23:44:55;;;;;;;;;;;;;;;20.21;42.57;94801.19;10478107;28;4636;-52
2023/11/13 23:49:55;;;;;;;;;;;;;;;20.19;42.74;94800.69;10477079;28;2733;-50
2023/11/13 23:54:55;;;;;;;;;;;;;;;20.17;42.47;94781.78;10471907;28;2647;-51
2023/11/13 23:59:56;;;;;;;;;;;;;;;20.16;42.00;94790.72;10478751;28;2680;-50
